Time,TemperatureF,DewpointF,PressureIn,WindDirection,WindDirectionDegrees,WindSpeedMPH,WindSpeedGustMPH,Humidity,HourlyPrecipIn,Conditions,Clouds,dailyrainin,SoftwareType,DateUTC
2013-04-30 00:02:00,65.0,-99.9,-100.00,SE,128,4.0,5.0,-999,-99.99,,,-99.99,,2013-04-30 05:02:00,
2013-04-30 00:12:00,65.0,-99.9,-100.00,SE,128,4.0,5.0,-999,-99.99,,,-99.99,,2013-04-30 05:12:00,
2013-04-30 03:20:00,55.0,-99.9,-100.00,NE,44,1.0,2.0,-999,-99.99,,,-99.99,,2013-04-30 08:20:00,
2013-04-30 04:02:00,55.0,-99.9,-100.00,NE,44,1.0,2.0,-999,-99.99,,,-99.99,,2013-04-30 09:02:00,
2013-04-30 04:11:00,55.0,-99.9,-100.00,NE,44,1.0,2.0,-999,-99.99,,,-99.99,,2013-04-30 09:11:00,
2013-04-30 10:53:00,73.0,-99.9,-100.00,SSE,166,4.0,4.0,-999,-99.99,,,-99.99,,2013-04-30 15:53:00,
2013-04-30 11:02:00,73.0,-99.9,-100.00,SSE,166,4.0,4.0,-999,-99.99,,,-99.99,,2013-04-30 16:02:00,
2013-04-30 12:02:00,81.0,-99.9,-100.00,WNW,295,10.0,20.0,-999,-99.99,,,-99.99,,2013-04-30 17:02:00,
2013-04-30 12:12:00,81.0,-99.9,-100.00,WNW,295,10.0,20.0,-999,-99.99,,,-99.99,,2013-04-30 17:12:00,
2013-04-30 12:53:00,86.0,-99.9,-100.00,NW,308,14.0,23.0,-999,-99.99,,,-99.99,,2013-04-30 17:53:00,
2013-04-30 13:01:00,86.0,-99.9,-100.00,NW,308,14.0,23.0,-999,-99.99,,,-99.99,,2013-04-30 18:01:00,
2013-04-30 13:11:00,86.0,-99.9,-100.00,NW,308,14.0,23.0,-999,-99.99,,,-99.99,,2013-04-30 18:11:00,
2013-04-30 16:22:00,91.0,-99.9,-100.00,NW,315,13.0,22.0,-999,-99.99,,,-99.99,,2013-04-30 21:22:00,
2013-04-30 16:33:00,91.0,-99.9,-100.00,NW,315,13.0,22.0,-999,-99.99,,,-99.99,,2013-04-30 21:33:00,
2013-04-30 16:42:00,91.0,-99.9,-100.00,NW,315,13.0,22.0,-999,-99.99,,,-99.99,,2013-04-30 21:42:00,
2013-04-30 18:22:00,90.0,-99.9,-100.00,NNW,328,8.0,15.0,-999,-99.99,,,-99.99,,2013-04-30 23:22:00,
2013-04-30 18:32:00,90.0,-99.9,-100.00,NNW,328,8.0,15.0,-999,-99.99,,,-99.99,,2013-04-30 23:32:00,
2013-04-30 18:42:00,90.0,-99.9,-100.00,NNW,328,8.0,15.0,-999,-99.99,,,-99.99,,2013-04-30 23:42:00,
2013-04-30 22:33:00,70.0,-99.9,-100.00,NNW,337,3.0,5.0,-999,-99.99,,,-99.99,,2013-05-01 03:33:00,
2013-04-30 22:43:00,70.0,-99.9,-100.00,NNW,337,3.0,5.0,-999,-99.99,,,-99.99,,2013-05-01 03:43:00,